Terminal Aerodrome Forecast
Issued by NWS Mt. Holly, NJ

Home | Current Version | Previous Version | Text Only | Print | Product List | Glossary On
Versions: 1 2 3 4 5 6 7 8 9 10 11 12 13 14
000
FTUS41 KPHI 291735
TAFACY
TAF
KACY 291735Z 2918/3018 16008KT P6SM SCT035 BKN120
     FM292200 16008KT P6SM -SHRA FEW010 OVC060
     FM300100 17007KT 6SM -SHRA BR OVC008
     FM300900 17005KT 2SM -RA BR OVC004=

USA.gov is the U.S. government's official web portal to all federal, state and local government web resources and services.